Aérodrome :
LOGIN :

S'inscrire | Disclaimer

   EN    FR    IT 

 










Légende :    VFR   VFR Marginal   IFR   IFR Intensif   IFR Très Intensif
Visi : 
Plafond : 
>= 8 km
>= 3000ft
5 à 8 km
1000 à 3000 ft
1500m à 5 km
500 à 1000 ft
800 à 1500m
200 à 500 ft
< 800m
< 200 ft
Symboles :   Orages  Brouillard  Fortes neiges  Fortes précipitations  Vent > 20 kt
SIGMETs :   Divers  Orages  Givrage  Turbulence  Onde Orograph.  Cendres Volcan.







- Altitude de l'aérodrome : 458 ft
- Voir les cartes d'approche


LFSI - St-Dizier

DERNIER METAR :
  • 210930Z AUTO 22011KT 9999 -RA OVC026/// ///TCU 19/15 Q1011

METARs EXPIRÉS :
  • 210900Z AUTO 22011KT 9999 -RA OVC030 19/14 Q1011
  • 210830Z AUTO 22009KT 190V250 9999 -RA ///TCU 19/14 Q1011
  • 210800Z AUTO 22010KT 190V250 9999 -RA NSC 19/14 Q1011
  • 210730Z AUTO 22012KT 9999 -RA ///TCU 20/13 Q1011
  • 210700Z AUTO 22013KT CAVOK 20/13 Q1011

TAF TAF LFSI
Valide du 21 à 09h jusqu'au 22 à 09h UTC


210800Z 2109/2209 22015G25KT 4000 -RA BKN020
TEMPO 2110/2113 27020G35KT
BECMG 2114/2116 CAVOK
BECMG 2118/2120 29005KT
Pas de NOTAMs connus pour ce terrain.



MET'MAP, la Météo Aéronautique d'un coup d'oeil ! - Copyright ORBIFLY Décembre 2007 - Disclaimer

ORBIFLY MET'MAP TEAM :

Programmation & Développement : Alexandra Zaïnal
Conception & Développement : Baudouin d'Aumeries
Co-Programmation & Développement : Marc-Olivier Méhu
Soutien technique & logistique : Manuel Goepfert

Contact : metmap@orbifly.com




SOURCES & CREDITS :

   NOAA